Geiyo K — V7QW4 — position and weather

sailwx.info

Track history (hours):
 
Tides and Currents Weather Stations Pressure Air Temp Water Temp Dewpoint Dewpoint Depression Visibility Wind Speed Wind Dir Waves Ship Positions

Geiyo K

Last reported at 2018-May-30 06:46 UTC. Time now 2018-Jun-23 23:45 UTC.
Position S 06°48' E 112°47'.
Warning: this ship's position is 24 days out of date.

Length 190 m; draft 9.7 m.

Type: Cargo ship. MMSI: 538006748.

Date/timePositionNaut miles runAvg speedWind from/ knotsBaromVisibWave heightAir tempDewpointWater temp
2018-May-30 06:46S 06°48' E 112°47'5 9.5
2018-May-30 06:12S 06°53' E 112°45'2 7.6
2018-May-30 05:57S 06°54' E 112°44'613.2
2018-May-30 05:28S 07°00' E 112°41'5 1.6
2018-May-30 02:08S 07°05' E 112°39'0 0.0
2018-May-29 17:32S 07°05' E 112°39'0 0.0
2018-May-29 13:59S 07°05' E 112°39'0 0.0
2018-May-29 13:23S 07°05' E 112°39'0 0.0
2018-May-29 12:26S 07°05' E 112°39'0 0.0
2018-May-29 11:50S 07°05' E 112°39'0 0.0
2018-May-29 11:29S 07°05' E 112°39'0 0.0
2018-May-29 10:26S 07°05' E 112°39'0 0.0
2018-May-29 09:11S 07°05' E 112°39'0 0.0
2018-May-29 06:44S 07°05' E 112°39'  
2018-May-26 04:32S 07°05' E 112°39'0 0.0
2018-May-26 04:20S 07°05' E 112°39'0 0.0
2018-May-26 04:00S 07°05' E 112°39'0 0.1
2018-May-26 03:30S 07°05' E 112°39'2 3.4
2018-May-26 02:55S 07°03' E 112°40'3 5.7
2018-May-26 02:26S 07°01' E 112°41'5 9.7
2018-May-26 01:57S 06°57' E 112°43'511.0
2018-May-26 01:27S 06°51' E 112°45'3 1.1
2018-May-25 23:06S 06°49' E 112°47'0 2.4
2018-May-25 23:00S 06°49' E 112°46'3 3.9
2018-May-25 22:22S 06°47' E 112°45'410.1
2018-May-25 21:57S 06°43' E 112°44'  
Track history (hours):
 
Tides and Currents Weather Stations Pressure Air Temp Water Temp Dewpoint Dewpoint Depression Visibility Wind Speed Wind Dir Waves Ship Positions

Geiyo K

Last reported at 2018-May-30 06:46 UTC. Time now 2018-Jun-23 23:45 UTC.
Position S 06°48' E 112°47'.
Warning: this ship's position is 24 days out of date.

Length 190 m; draft 9.7 m.

Type: Cargo ship. MMSI: 538006748.

Date/timePositionNaut miles runAvg speedWind from/ knotsBaromVisibWave heightAir tempDewpointWater temp
2018-May-30 06:46S 06°48' E 112°47'5 9.5
2018-May-30 06:12S 06°53' E 112°45'2 7.6
2018-May-30 05:57S 06°54' E 112°44'613.2
2018-May-30 05:28S 07°00' E 112°41'5 1.6
2018-May-30 02:08S 07°05' E 112°39'0 0.0
2018-May-29 17:32S 07°05' E 112°39'0 0.0
2018-May-29 13:59S 07°05' E 112°39'0 0.0
2018-May-29 13:23S 07°05' E 112°39'0 0.0
2018-May-29 12:26S 07°05' E 112°39'0 0.0
2018-May-29 11:50S 07°05' E 112°39'0 0.0
2018-May-29 11:29S 07°05' E 112°39'0 0.0
2018-May-29 10:26S 07°05' E 112°39'0 0.0
2018-May-29 09:11S 07°05' E 112°39'0 0.0
2018-May-29 06:44S 07°05' E 112°39'  
2018-May-26 04:32S 07°05' E 112°39'0 0.0
2018-May-26 04:20S 07°05' E 112°39'0 0.0
2018-May-26 04:00S 07°05' E 112°39'0 0.1
2018-May-26 03:30S 07°05' E 112°39'2 3.4
2018-May-26 02:55S 07°03' E 112°40'3 5.7
2018-May-26 02:26S 07°01' E 112°41'5 9.7
2018-May-26 01:57S 06°57' E 112°43'511.0
2018-May-26 01:27S 06°51' E 112°45'3 1.1
2018-May-25 23:06S 06°49' E 112°47'0 2.4
2018-May-25 23:00S 06°49' E 112°46'3 3.9
2018-May-25 22:22S 06°47' E 112°45'410.1
2018-May-25 21:57S 06°43' E 112°44'  

Dump ship's entire track history